Kezdőlap
METAR-TAF:

METAR-TAF

Repülőterek :

Kimmirut, Nunavut, Kanada

földrajzi szélesség: 62-51N, földrajzi hosszúság: 069-53W, magasság: 53 m

Jelenlegi meteorológiai megfigyelések

A jelentés 1 órával és 50 perccel ezelõtt készült, 21:00 UTC
Keleti szél 5 kt
Hőmérséklet -8°C
Páratartalom 92%
Légköri nyomás 1021 hPa
Látótávolság: 9.7 km
Szórványos felhőzet 1400 lábon
Borult 1700 lábon
enyhe havazás

METAR: CYLC 202100Z 08005KT 6SM -SN SCT014 OVC017 M08/M09 A3016 RMK ST3SC5 0.4/2 MUCH LOOSE LASTSTFD OBS/NXT 211300Z SLP222

Idő: 17:50 (22:50 UTC)


TAF: hiányzik

Meteorológiai megfigyelések és előrejelzések több, mint 4000 repülőtéren (METAR és TAF jelentéseket).

A térképen piros és sárga pontok jelzik az elérhető meteorológiai állomásokat.

Mozgassa az egeret a pont fölött, hogy megjelenjen az állomás neve.

Azután kattintson az időjárási megfigyelések és előrejelzések megtekintéséhez.

A térkép megváltoztatása: kattintson a fekete keresztel jelölt zöld gombra ráközelítéshez, a vonallal jelölt zöld gombra távolításhoz, vagy a zöld nyilakra a szomszédos térképek eléréséhez.


METAR-TAF: